Time;durP1;ratioP1;P1;durP2;ratioP2;P2;SDS_P1;SDS_P2;PMS_P1;PMS_P2;Temp;Humidity;BMP_temperature;BMP_pressure;BME280_temperature;BME280_humidity;BME280_pressure;Samples;Min_cycle;Max_cycle;Signal;HPM_P1;HPM_P2
2021/03/29 00:02:20;;;;;;;379.15;127.88;;;;;;;6.82;91.32;71311.50;4977003;28;20042;-86
2021/03/29 00:04:47;;;;;;;362.08;132.27;;;;;;;6.82;92.14;71312.13;4976984;28;20084;-85
2021/03/29 00:07:14;;;;;;;346.92;130.18;;;;;;;6.19;92.33;71236.34;4976844;28;20030;-86
2021/03/29 00:09:43;;;;;;;351.00;125.22;;;;;;;6.57;93.02;71277.56;4977400;28;20054;-88
2021/03/29 00:12:12;;;;;;;333.27;119.47;;;;;;;6.56;94.16;71281.81;4993334;28;20113;-84
2021/03/29 00:14:40;;;;;;;334.60;126.93;;;;;;;7.02;93.92;71334.09;4979795;28;20027;-87
2021/03/29 00:17:07;;;;;;;331.65;121.82;;;;;;;7.53;92.94;71390.78;4980967;28;20034;-86
2021/03/29 00:19:37;;;;;;;318.90;118.60;;;;;;;7.63;91.76;71404.19;4981627;28;20109;-85
2021/03/29 00:22:05;;;;;;;337.77;117.15;;;;;;;7.11;90.04;71345.38;4981026;28;20049;-85
2021/03/29 00:24:33;;;;;;;295.35;109.72;;;;;;;6.80;91.76;71309.16;4979689;28;20018;-86
2021/03/29 00:27:01;;;;;;;351.75;119.05;;;;;;;6.34;91.55;71254.16;4979039;28;20030;-86
2021/03/29 00:29:28;;;;;;;298.00;112.82;;;;;;;6.40;90.57;71263.41;4977201;28;20014;-85
2021/03/29 00:31:57;;;;;;;322.33;113.03;;;;;;;6.59;89.35;71288.13;4976916;28;20030;-86
2021/03/29 00:34:24;;;;;;;273.83;99.10;;;;;;;6.59;90.01;71282.06;4976847;28;20030;-86
2021/03/29 00:36:53;;;;;;;306.52;110.05;;;;;;;7.44;88.25;71376.75;4976440;28;20023;-86
2021/03/29 00:39:22;;;;;;;297.83;104.38;;;;;;;7.15;88.85;71349.53;4976409;28;20034;-86
2021/03/29 00:41:50;;;;;;;276.95;103.68;;;;;;;7.58;89.63;71398.25;4973301;28;20551;-85
2021/03/29 00:44:19;;;;;;;267.98;97.13;;;;;;;8.11;86.51;71458.88;4975574;28;20074;-85
2021/03/29 00:46:48;;;;;;;288.67;97.93;;;;;;;7.26;88.53;71362.03;4958583;28;20503;-87
2021/03/29 00:49:16;;;;;;;283.85;100.43;;;;;;;6.70;89.10;71298.47;4978778;28;20130;-86
2021/03/29 00:51:43;;;;;;;268.77;102.15;;;;;;;7.24;88.38;71354.75;4989449;28;20101;-86
2021/03/29 00:54:11;;;;;;;276.70;101.88;;;;;;;6.84;89.33;71313.91;4971031;28;20050;-84
2021/03/29 00:56:39;;;;;;;279.90;95.55;;;;;;;6.15;88.20;71235.53;4990247;28;20026;-86
2021/03/29 00:59:07;;;;;;;285.88;102.93;;;;;;;6.87;89.36;71317.47;4960291;28;20098;-85
2021/03/29 01:01:38;;;;;;;331.58;107.20;;;;;;;7.19;89.40;71351.53;4958350;28;20519;-87
2021/03/29 01:04:07;;;;;;;285.17;100.53;;;;;;;6.67;89.51;71294.31;4959798;28;20027;-85
2021/03/29 01:06:40;;;;;;;267.75;94.15;;;;;;;7.53;89.04;71390.78;4959600;28;20463;-87
2021/03/29 01:09:10;;;;;;;309.90;97.43;;;;;;;7.77;89.05;71415.38;4958223;28;20456;-85
2021/03/29 01:11:45;;;;;;;;;;;;;;;8.09;86.16;71457.09;4960013;28;20078;-86
2021/03/29 01:14:21;;;;;;;275.52;101.95;;;;;;;7.71;88.79;71413.13;4967209;28;19914;-85
2021/03/29 01:17:18;;;;;;;281.00;102.25;;;;;;;7.11;87.92;71342.66;4978574;28;20038;-85
2021/03/29 01:20:12;;;;;;;288.63;104.28;;;;;;;8.26;87.88;71473.97;4975194;28;20027;-84
2021/03/29 01:22:45;;;;;;;309.38;106.95;;;;;;;8.19;87.50;71466.25;4956273;28;20038;-85
2021/03/29 01:25:25;;;;;;;282.02;100.63;;;;;;;7.88;85.83;71433.31;4973873;28;20061;-85
2021/03/29 01:28:02;;;;;;;304.83;97.38;;;;;;;7.49;86.97;71388.75;4974629;28;20609;-86
2021/03/29 01:30:34;;;;;;;278.02;105.85;;;;;;;8.00;87.44;71441.53;4956980;28;20049;-85
2021/03/29 01:33:02;;;;;;;275.40;97.32;;;;;;;7.48;85.24;71384.81;4973659;28;20014;-85
2021/03/29 01:35:35;;;;;;;304.20;100.65;;;;;;;8.73;84.11;71527.53;4939903;28;20034;-86
2021/03/29 01:38:03;;;;;;;280.80;92.43;;;;;;;8.57;84.43;71509.09;4959718;28;20392;-87
2021/03/29 01:40:33;;;;;;;290.90;97.47;;;;;;;8.77;84.61;71535.03;4957203;28;20054;-84
2021/03/29 01:43:01;;;;;;;288.85;93.82;;;;;;;9.21;81.87;71585.00;4955648;28;20397;-86
2021/03/29 01:45:28;;;;;;;275.63;99.63;;;;;;;9.03;82.44;71559.28;4964931;28;20030;-84
2021/03/29 01:47:55;;;;;;;314.23;99.50;;;;;;;9.19;81.63;71583.22;4976689;28;20057;-86
2021/03/29 01:50:27;;;;;;;288.08;94.43;;;;;;;8.90;82.92;71550.50;4976689;28;20081;-86
2021/03/29 01:52:56;;;;;;;291.63;92.22;;;;;;;9.09;81.98;71571.31;4993215;28;21060;-86
2021/03/29 01:55:24;;;;;;;264.48;91.97;;;;;;;8.21;82.20;71468.03;4975782;28;20094;-85
2021/03/29 01:57:51;;;;;;;270.00;93.38;;;;;;;8.75;81.17;71532.66;4993209;28;20023;-85
2021/03/29 02:00:36;;;;;;;275.73;96.28;;;;;;;8.85;80.93;71541.81;4974754;28;20507;-86
2021/03/29 02:03:07;;;;;;;258.85;89.97;;;;;;;8.26;80.36;71476.72;4974622;28;20026;-86
2021/03/29 02:05:35;;;;;;;290.27;91.20;;;;;;;8.45;80.96;71495.97;4974591;28;20058;-84
2021/03/29 02:08:02;;;;;;;274.45;86.57;;;;;;;9.21;80.01;71580.09;4975096;28;20387;-86
2021/03/29 02:10:34;;;;;;;286.25;85.55;;;;;;;8.87;80.35;71544.19;4993182;28;20027;-85
2021/03/29 02:13:09;;;;;;;265.90;83.38;;;;;;;8.43;81.04;71493.59;4976949;28;20496;-84
2021/03/29 02:15:37;;;;;;;291.20;86.80;;;;;;;9.27;79.65;71589.41;4976075;28;20030;-85
2021/03/29 02:18:14;;;;;;;285.73;87.97;;;;;;;8.34;80.69;71480.16;4976655;28;20036;-86
2021/03/29 02:20:41;;;;;;;282.60;82.60;;;;;;;8.46;79.05;71499.31;4994385;28;20530;-85
2021/03/29 02:23:09;;;;;;;280.23;81.32;;;;;;;8.66;78.63;71519.78;4976858;28;20113;-87
2021/03/29 02:25:36;;;;;;;286.33;83.20;;;;;;;7.97;79.09;71440.69;4975830;28;20109;-85
2021/03/29 02:28:05;;;;;;;258.40;78.10;;;;;;;9.01;80.35;71563.00;4976606;28;20654;-86
2021/03/29 02:30:37;;;;;;;284.13;79.13;;;;;;;8.90;80.24;71547.75;4975088;28;20056;-86
2021/03/29 02:33:06;;;;;;;280.35;80.85;;;;;;;9.68;77.81;71633.66;4992387;28;20089;-85
2021/03/29 02:35:35;;;;;;;298.25;79.43;;;;;;;9.51;78.64;71616.78;4982058;28;20384;-86
2021/03/29 02:38:22;;;;;;;265.60;72.77;;;;;;;8.82;76.13;71538.25;4977838;28;20057;-85
2021/03/29 02:40:57;;;;;;;273.55;71.90;;;;;;;9.54;77.00;71620.34;4984584;28;20403;-86
2021/03/29 02:43:25;;;;;;;291.88;72.97;;;;;;;9.93;76.58;71662.84;4990726;28;20066;-86
2021/03/29 02:46:05;;;;;;;257.02;68.78;;;;;;;8.95;76.68;71552.50;4990926;28;20030;-86
2021/03/29 02:48:39;;;;;;;315.55;74.25;;;;;;;8.79;77.63;71534.66;4998454;28;20123;-86
2021/03/29 02:51:12;;;;;;;320.40;72.90;;;;;;;8.35;76.83;71481.97;4995059;28;20137;-84
2021/03/29 02:53:45;;;;;;;311.13;74.85;;;;;;;9.45;76.03;71610.81;4995829;28;20526;-85
2021/03/29 02:56:18;;;;;;;317.05;70.47;;;;;;;9.24;75.11;71585.81;4996684;28;20040;-85
2021/03/29 02:58:50;;;;;;;294.55;70.78;;;;;;;8.62;74.83;71518.38;4995346;28;20076;-86
2021/03/29 03:01:18;;;;;;;296.33;72.75;;;;;;;9.41;75.12;71603.31;5013010;28;21019;-85
2021/03/29 03:03:46;;;;;;;317.15;69.55;;;;;;;9.83;73.52;71654.28;4996592;28;20054;-86
2021/03/29 03:06:14;;;;;;;304.20;74.65;;;;;;;8.32;74.08;71483.84;4996965;28;20034;-87
2021/03/29 03:08:42;;;;;;;280.92;70.40;;;;;;;8.16;74.75;71462.69;5025321;28;20006;-85
2021/03/29 03:11:13;;;;;;;294.80;70.90;;;;;;;9.18;75.35;71577.13;5009829;28;20026;-85
2021/03/29 03:13:42;;;;;;;316.85;69.20;;;;;;;8.12;75.72;71460.06;5009350;28;20084;-86
2021/03/29 03:16:10;;;;;;;290.15;67.13;;;;;;;7.87;75.09;71428.81;4995397;28;20120;-87
2021/03/29 03:18:41;;;;;;;272.48;66.55;;;;;;;9.44;75.22;71612.38;4994132;28;20030;-86
2021/03/29 03:21:08;;;;;;;292.17;66.65;;;;;;;9.58;73.35;71625.13;5011633;28;20379;-85
2021/03/29 03:23:54;;;;;;;289.25;66.80;;;;;;;9.23;72.24;71587.38;4993757;28;20030;-83
2021/03/29 03:26:22;;;;;;;290.40;68.57;;;;;;;9.90;73.33;71658.66;4995086;28;20423;-86
2021/03/29 03:28:49;;;;;;;282.83;67.97;;;;;;;9.80;72.57;71652.88;4980837;28;20037;-86
2021/03/29 03:31:16;;;;;;;280.00;64.65;;;;;;;9.99;70.39;71666.66;4976726;28;20026;-84
2021/03/29 03:33:43;;;;;;;290.73;65.47;;;;;;;9.63;69.19;71633.22;4975305;28;20038;-84
2021/03/29 03:36:13;;;;;;;300.10;58.72;;;;;;;9.86;69.90;71660.00;4975461;28;20034;-85
2021/03/29 03:38:43;;;;;;;320.90;63.28;;;;;;;9.86;72.02;71657.25;4975309;28;20506;-85
2021/03/29 03:41:13;;;;;;;290.73;67.70;;;;;;;9.82;72.92;71655.25;4975276;28;20035;-84
2021/03/29 03:44:00;;;;;;;295.02;66.15;;;;;;;9.72;72.67;71644.53;4975524;28;20516;-85
2021/03/29 03:46:37;;;;;;;290.50;67.32;;;;;;;9.51;71.90;71619.53;4977718;28;20061;-83
2021/03/29 03:49:11;;;;;;;312.65;68.35;;;;;;;8.99;72.84;71557.28;4975131;28;20587;-84
2021/03/29 03:51:39;;;;;;;272.08;62.80;;;;;;;9.40;73.46;71604.88;4990071;28;20042;-85
2021/03/29 03:54:10;;;;;;;292.08;67.70;;;;;;;8.99;69.61;71554.53;4974213;28;20111;-85
2021/03/29 03:56:38;;;;;;;329.25;66.80;;;;;;;9.49;70.67;71617.13;4974074;28;20089;-86
2021/03/29 03:59:06;;;;;;;317.25;69.43;;;;;;;10.14;70.52;71686.66;4973755;28;20067;-85
2021/03/29 04:01:50;;;;;;;301.88;63.38;;;;;;;10.30;67.67;71710.00;4973518;28;20042;-85
2021/03/29 04:04:16;;;;;;;350.17;69.70;;;;;;;9.08;68.77;71567.97;4973287;28;20030;-85
2021/03/29 04:06:43;;;;;;;337.25;66.82;;;;;;;10.12;69.45;71687.03;4974036;28;20484;-84
2021/03/29 04:09:11;;;;;;;319.50;61.15;;;;;;;9.42;68.82;71606.66;4975137;28;20060;-86
2021/03/29 04:11:38;;;;;;;326.77;61.05;;;;;;;8.65;68.39;71518.59;4973402;28;20026;-86
2021/03/29 04:14:05;;;;;;;316.17;61.38;;;;;;;9.14;68.94;71577.88;4974725;28;20027;-84
2021/03/29 04:16:31;;;;;;;296.73;61.67;;;;;;;9.80;70.87;71650.13;4972698;28;20046;-85
2021/03/29 04:18:58;;;;;;;307.88;63.20;;;;;;;9.94;70.85;71669.50;4973554;28;20057;-85
2021/03/29 04:21:25;;;;;;;292.20;60.28;;;;;;;10.33;69.80;71710.84;4972926;28;20037;-86
2021/03/29 04:23:52;;;;;;;281.33;57.67;;;;;;;10.02;70.11;71672.34;4974525;28;20073;-85
2021/03/29 04:26:19;;;;;;;262.38;60.45;;;;;;;9.41;69.71;71605.47;4973048;28;20511;-86
2021/03/29 04:28:46;;;;;;;341.75;65.20;;;;;;;10.24;69.05;71700.72;4973257;28;20058;-85
2021/03/29 04:31:12;;;;;;;329.65;63.75;;;;;;;9.35;69.91;71601.06;4972687;28;20553;-85
2021/03/29 04:33:39;;;;;;;334.55;65.10;;;;;;;8.74;67.83;71531.47;4973001;28;20034;-86
2021/03/29 04:36:06;;;;;;;298.70;60.35;;;;;;;9.10;68.67;71569.78;4974699;28;20488;-86
2021/03/29 04:38:33;;;;;;;314.17;61.38;;;;;;;9.03;69.04;71562.63;4973302;28;20035;-86
2021/03/29 04:41:00;;;;;;;263.15;57.83;;;;;;;9.63;70.28;71633.22;4973124;28;20030;-83
2021/03/29 04:43:27;;;;;;;271.23;59.30;;;;;;;9.74;69.44;71643.56;4972571;28;20149;-86
2021/03/29 04:45:54;;;;;;;295.63;60.08;;;;;;;9.23;69.18;71585.25;4972409;28;20078;-85
2021/03/29 04:48:21;;;;;;;332.52;66.78;;;;;;;9.46;68.76;71614.16;4974817;28;20109;-86
2021/03/29 04:50:48;;;;;;;217.63;50.85;;;;;;;9.12;67.32;71575.50;4975758;28;20042;-85
2021/03/29 04:53:15;;;;;;;308.88;58.60;;;;;;;9.17;65.84;71581.44;4993246;28;20015;-86
2021/03/29 04:55:42;;;;;;;299.23;55.33;;;;;;;8.77;65.69;71535.03;4975851;28;20030;-86
2021/03/29 04:58:11;;;;;;;267.27;60.13;;;;;;;9.23;67.16;71581.91;4992634;28;20025;-85
2021/03/29 05:00:38;;;;;;;265.40;54.67;;;;;;;9.28;69.26;71590.59;4976120;28;20125;-87
2021/03/29 05:03:05;;;;;;;236.65;55.47;;;;;;;9.99;70.90;71674.88;4978703;28;20245;-87
2021/03/29 05:05:32;;;;;;;248.88;59.92;;;;;;;9.30;71.14;71592.97;4975736;28;20019;-86
2021/03/29 05:07:59;;;;;;;261.58;60.22;;;;;;;8.92;72.35;71551.69;4975822;28;20029;-85
2021/03/29 05:10:27;;;;;;;245.10;63.28;;;;;;;9.28;75.14;71593.34;4974267;28;20018;-87
2021/03/29 05:12:54;;;;;;;208.15;59.85;;;;;;;8.51;76.28;71501.94;4976549;28;20042;-87
2021/03/29 05:15:21;;;;;;;233.75;64.10;;;;;;;8.01;76.07;71447.56;4976154;28;20080;-86
2021/03/29 05:17:48;;;;;;;212.10;61.10;;;;;;;8.84;75.38;71542.75;4960757;28;20547;-87
2021/03/29 05:20:15;;;;;;;237.25;64.32;;;;;;;8.26;77.57;71476.13;4955828;28;20061;-86
2021/03/29 05:22:52;;;;;;;216.32;64.25;;;;;;;8.81;76.82;71534.31;4962039;28;20042;-85
2021/03/29 05:25:19;;;;;;;185.07;57.75;;;;;;;8.86;75.73;71540.25;4975333;28;20117;-85
2021/03/29 05:27:46;;;;;;;204.68;60.08;;;;;;;10.08;74.91;71685.59;4993224;28;20026;-84
2021/03/29 05:30:13;;;;;;;187.55;60.25;;;;;;;10.47;73.86;71726.94;4975189;28;20061;-84
2021/03/29 05:32:40;;;;;;;209.20;57.92;;;;;;;8.95;72.50;71552.50;4975662;28;20023;-86
2021/03/29 05:35:07;;;;;;;202.63;61.90;;;;;;;10.05;71.54;71681.44;4976731;28;20057;-86
2021/03/29 05:37:34;;;;;;;220.23;62.75;;;;;;;10.25;73.67;71705.25;4975984;28;20103;-86
2021/03/29 05:40:04;;;;;;;214.63;60.67;;;;;;;9.79;74.23;71648.91;4965241;28;20120;-86
2021/03/29 05:42:31;;;;;;;201.50;58.03;;;;;;;9.30;74.18;71593.56;4958540;28;20033;-85
2021/03/29 05:45:08;;;;;;;176.70;58.58;;;;;;;9.96;74.47;71671.91;4971867;28;20030;-85
2021/03/29 05:47:36;;;;;;;180.98;55.47;;;;;;;9.79;74.96;71651.66;4972490;28;20063;-85
2021/03/29 05:50:11;;;;;;;170.07;57.47;;;;;;;9.30;75.46;71590.22;4955434;28;20408;-85
2021/03/29 05:52:40;;;;;;;196.63;57.97;;;;;;;9.45;74.60;71610.22;4973797;28;20093;-86
2021/03/29 05:55:13;;;;;;;181.75;59.58;;;;;;;9.69;75.09;71638.19;4957125;28;20019;-86
2021/03/29 06:00:32;;;;;;;184.40;55.90;;;;;;;9.53;75.37;71619.75;4974907;28;20042;-85
2021/03/29 06:03:31;;;;;;;176.20;52.65;;;;;;;9.60;75.55;71627.50;4975167;28;20538;-85
2021/03/29 06:06:03;;;;;;;172.70;53.13;;;;;;;8.38;76.95;71484.31;4976181;28;20031;-85
2021/03/29 06:08:32;;;;;;;179.60;55.35;;;;;;;7.88;76.60;71430.00;4980567;28;20124;-85
2021/03/29 06:11:00;;;;;;;170.27;52.28;;;;;;;9.08;75.74;71570.72;4978529;28;20030;-85
2021/03/29 06:13:31;;;;;;;194.32;56.15;;;;;;;8.79;75.44;71537.41;4975276;28;20049;-86
2021/03/29 06:16:11;;;;;;;147.98;54.97;;;;;;;9.60;75.62;71630.22;4976738;28;20050;-85
2021/03/29 06:18:49;;;;;;;156.52;49.90;;;;;;;9.36;76.46;71602.84;4975014;28;20026;-85
2021/03/29 06:21:16;;;;;;;178.98;53.53;;;;;;;8.88;76.54;71548.13;4992278;28;20072;-87
2021/03/29 06:23:58;;;;;;;146.25;53.17;;;;;;;7.48;76.94;71387.56;4974574;28;20041;-86
2021/03/29 06:26:29;;;;;;;155.68;53.13;;;;;;;8.84;76.86;71543.34;4975125;28;20042;-86
2021/03/29 06:28:57;;;;;;;178.10;57.95;;;;;;;6.88;77.86;71318.06;4975298;28;20081;-85
2021/03/29 06:31:34;;;;;;;165.80;54.05;;;;;;;7.99;78.86;71442.47;4974559;28;20041;-86
2021/03/29 06:34:02;;;;;;;162.00;50.35;;;;;;;8.25;75.77;71475.53;4974444;28;20454;-84
2021/03/29 06:36:36;;;;;;;175.75;53.33;;;;;;;8.61;75.56;71517.19;4992561;28;20048;-86
2021/03/29 06:39:18;;;;;;;161.73;51.50;;;;;;;9.12;76.46;71569.41;4974940;28;20399;-86
2021/03/29 06:41:55;;;;;;;157.45;55.83;;;;;;;9.13;77.00;71570.59;4992697;28;20026;-84
2021/03/29 06:44:34;;;;;;;165.38;51.08;;;;;;;9.10;75.49;71567.59;4992482;28;20026;-86
2021/03/29 06:47:13;;;;;;;162.60;53.47;;;;;;;8.74;74.59;71531.47;4974511;28;20081;-85
2021/03/29 06:49:45;;;;;;;148.95;49.67;;;;;;;9.16;74.80;71577.50;4974815;28;20046;-84
2021/03/29 06:52:34;;;;;;;155.98;48.28;;;;;;;9.05;72.61;71564.41;4975759;28;20389;-84
2021/03/29 06:55:26;;;;;;;163.52;40.38;;;;;;;7.16;70.95;71350.72;4976528;28;20026;-85
2021/03/29 06:58:00;;;;;;;159.02;38.85;;;;;;;8.10;70.81;71454.97;4980031;28;20039;-84
2021/03/29 07:00:38;;;;;;;171.85;49.45;;;;;;;8.54;72.74;71503.38;4998395;28;20084;-85
2021/03/29 07:03:08;;;;;;;179.00;53.65;;;;;;;8.18;74.10;71461.72;4981353;28;20062;-85
2021/03/29 07:05:37;;;;;;;166.20;55.67;;;;;;;6.73;75.33;71298.69;4986477;28;20026;-82
2021/03/29 07:08:07;;;;;;;155.27;52.00;;;;;;;9.03;73.16;71564.75;5003249;28;20381;-87
2021/03/29 07:10:33;;;;;;;;;;;;;;;9.47;72.34;71615.34;4982094;28;20404;-85
2021/03/29 07:13:01;;;;;;;170.68;50.08;;;;;;;7.65;72.25;71406.56;4990376;28;19921;-85
2021/03/29 07:15:28;;;;;;;166.90;50.85;;;;;;;8.75;73.10;71529.91;4978128;28;20118;-85
2021/03/29 07:17:56;;;;;;;190.98;53.83;;;;;;;8.24;74.30;71471.59;4974104;28;20022;-85
2021/03/29 07:20:25;;;;;;;150.07;51.30;;;;;;;7.98;71.39;71444.63;4974866;28;20076;-85
2021/03/29 07:22:56;;;;;;;177.93;54.40;;;;;;;9.36;69.77;71602.84;4977752;28;20026;-85
2021/03/29 07:25:31;;;;;;;178.15;50.28;;;;;;;9.49;66.99;71617.13;4977734;28;20113;-85
2021/03/29 07:28:00;;;;;;;162.13;47.85;;;;;;;8.97;65.12;71554.91;4978156;28;20057;-86
2021/03/29 07:30:51;;;;;;;169.07;44.23;;;;;;;8.85;62.19;71541.22;4978477;28;20038;-84
2021/03/29 07:33:22;;;;;;;165.70;47.75;;;;;;;9.24;61.22;71588.56;4978942;28;20317;-85
2021/03/29 07:35:55;;;;;;;196.60;46.03;;;;;;;9.08;60.94;71564.66;4979243;28;20062;-87
2021/03/29 07:38:24;;;;;;;173.50;47.22;;;;;;;8.49;61.05;71503.47;4972204;28;20027;-84
2021/03/29 07:40:54;;;;;;;170.02;43.35;;;;;;;8.43;62.38;71493.59;4988620;28;20038;-84
2021/03/29 07:43:26;;;;;;;178.90;48.05;;;;;;;8.97;63.15;71554.91;4976091;28;20031;-86
2021/03/29 07:45:55;;;;;;;202.10;48.75;;;;;;;9.28;62.30;71590.59;4991456;28;20038;-86
2021/03/29 07:48:49;;;;;;;171.63;46.42;;;;;;;9.40;62.19;71607.59;4977659;28;20030;-85
2021/03/29 07:51:17;;;;;;;166.13;45.78;;;;;;;8.41;62.06;71491.22;4979496;28;20085;-85
2021/03/29 07:53:52;;;;;;;178.30;47.95;;;;;;;8.86;63.33;71545.16;4995981;28;20030;-86
2021/03/29 07:56:34;;;;;;;165.30;44.88;;;;;;;9.10;63.63;71567.59;4977099;28;20030;-86
2021/03/29 07:59:03;;;;;;;178.10;51.58;;;;;;;7.36;66.21;71367.81;4977932;28;20090;-87
2021/03/29 08:02:00;;;;;;;164.98;46.92;;;;;;;8.54;68.48;71506.13;4968821;28;20030;-86
2021/03/29 08:05:04;;;;;;;175.07;49.88;;;;;;;8.31;71.15;71479.94;4973617;28;20476;-86
2021/03/29 08:07:42;;;;;;;181.77;50.47;;;;;;;8.48;68.07;71498.97;4973432;28;20035;-86
2021/03/29 08:10:12;;;;;;;169.85;50.53;;;;;;;8.57;67.74;71512.41;4973610;28;20045;-86
2021/03/29 08:12:57;;;;;;;145.50;51.30;;;;;;;8.19;67.62;71465.66;4957009;28;20026;-86
2021/03/29 08:15:43;;;;;;;187.88;50.55;;;;;;;8.10;68.16;71455.56;4974641;28;20428;-86
2021/03/29 08:18:10;;;;;;;184.38;53.33;;;;;;;8.34;67.74;71486.22;4957713;28;20030;-85
2021/03/29 08:20:44;;;;;;;185.35;49.13;;;;;;;7.62;68.30;71403.59;4974923;28;20035;-85
2021/03/29 08:23:37;;;;;;;170.27;53.58;;;;;;;8.78;67.98;71533.47;4957616;28;20026;-85
2021/03/29 08:26:21;;;;;;;189.38;53.00;;;;;;;8.74;65.84;71531.47;4974706;28;20022;-85
2021/03/29 08:29:07;;;;;;;173.20;43.13;;;;;;;9.10;64.12;71570.34;4964861;28;20491;-84
2021/03/29 08:32:09;;;;;;;186.52;48.10;;;;;;;8.79;64.46;71534.06;4973393;28;20043;-85
2021/03/29 08:35:02;;;;;;;185.50;48.53;;;;;;;9.03;62.13;71559.28;4996459;28;20032;-86
2021/03/29 08:37:43;;;;;;;165.00;46.30;;;;;;;8.86;60.72;71545.16;4971074;28;20488;-85
2021/03/29 08:40:24;;;;;;;181.80;47.63;;;;;;;8.89;60.89;71549.31;4993727;28;20039;-85
2021/03/29 08:42:54;;;;;;;174.13;44.58;;;;;;;9.27;60.77;71590.00;4975895;28;20037;-86
2021/03/29 08:45:24;;;;;;;155.00;42.67;;;;;;;9.42;61.05;71603.91;4975957;28;20057;-84
2021/03/29 08:47:54;;;;;;;176.65;42.33;;;;;;;9.08;58.91;71567.41;4975927;28;20030;-85
2021/03/29 08:50:28;;;;;;;186.98;41.72;;;;;;;9.36;59.55;71597.38;4975709;28;20042;-85
2021/03/29 08:53:01;;;;;;;180.20;38.83;;;;;;;9.24;57.73;71583.09;4993656;28;20026;-86
2021/03/29 08:55:30;;;;;;;167.52;40.42;;;;;;;9.28;57.08;71591.19;4993344;28;20479;-85
2021/03/29 08:57:59;;;;;;;105.00;29.63;;;;;;;8.07;56.49;71455.31;4977152;28;20050;-85
2021/03/29 09:00:30;;;;;;;183.43;47.90;;;;;;;7.79;59.96;71417.75;4986422;28;20049;-85
2021/03/29 09:02:58;;;;;;;169.05;41.20;;;;;;;8.45;60.83;71498.13;4995017;28;20037;-84
2021/03/29 09:05:26;;;;;;;166.07;43.88;;;;;;;9.29;61.00;71594.53;4982441;28;20037;-86
2021/03/29 09:07:54;;;;;;;172.23;46.47;;;;;;;9.21;60.06;71585.00;4975540;28;20061;-85
2021/03/29 09:10:32;;;;;;;178.55;47.95;;;;;;;8.66;61.84;71519.22;4976040;28;20505;-84
2021/03/29 09:13:09;;;;;;;184.90;46.22;;;;;;;8.55;62.23;71503.97;4975634;28;20046;-82
2021/03/29 09:15:41;;;;;;;184.03;44.77;;;;;;;8.80;63.86;71533.09;4997545;28;20018;-92
2021/03/29 09:18:17;;;;;;;174.18;43.35;;;;;;;9.10;63.70;71570.34;4997616;28;20104;-89
2021/03/29 09:20:50;;;;;;;176.27;52.33;;;;;;;8.11;65.03;71456.16;5008883;28;20053;-92
2021/03/29 09:23:20;;;;;;;176.70;52.47;;;;;;;8.52;68.29;71503.75;4988300;28;20102;-91
2021/03/29 09:25:52;;;;;;;183.05;50.13;;;;;;;7.89;68.72;71431.16;4979413;28;20054;-84
2021/03/29 09:28:34;;;;;;;239.05;58.03;;;;;;;7.50;69.34;71387.19;4978536;28;20037;-89
2021/03/29 09:31:07;;;;;;;211.93;59.10;;;;;;;8.08;71.47;71456.50;4981982;28;20033;-89
2021/03/29 09:33:35;;;;;;;206.77;58.35;;;;;;;7.67;73.62;71409.53;4982236;28;20396;-91
2021/03/29 09:36:10;;;;;;;197.95;60.08;;;;;;;7.57;75.07;71391.59;4995080;28;20026;-89
2021/03/29 09:38:39;;;;;;;209.43;54.03;;;;;;;7.36;74.89;71370.56;4993418;28;20061;-90
2021/03/29 09:41:21;;;;;;;218.95;63.05;;;;;;;6.57;76.83;71277.56;4999040;28;20080;-90
2021/03/29 09:43:50;;;;;;;240.85;63.35;;;;;;;4.42;77.67;71037.38;4986859;28;20033;-88
2021/03/29 09:46:25;;;;;;;231.70;68.13;;;;;;;6.12;79.08;71228.66;4980927;28;20030;-90
2021/03/29 09:49:05;;;;;;;242.15;67.20;;;;;;;6.23;78.68;71243.84;4987986;28;20042;-92
2021/03/29 09:51:32;;;;;;;245.88;62.30;;;;;;;6.56;78.21;71281.81;4988655;28;20029;-89
2021/03/29 09:53:59;;;;;;;244.40;62.92;;;;;;;5.54;78.75;71165.47;4987694;28;20488;-89
2021/03/29 09:56:28;;;;;;;228.68;64.05;;;;;;;5.68;79.01;71178.16;4987438;28;20042;-89
2021/03/29 09:58:55;;;;;;;226.13;59.20;;;;;;;6.17;78.59;71231.84;4985666;28;20062;-86
2021/03/29 10:01:27;;;;;;;251.95;64.78;;;;;;;6.83;78.19;71312.69;4999016;28;20120;-88
2021/03/29 10:03:56;;;;;;;236.18;65.00;;;;;;;7.11;77.23;71339.31;4984526;28;20081;-88
2021/03/29 10:06:25;;;;;;;248.15;61.88;;;;;;;6.64;77.44;71291.31;4999370;28;20030;-87
2021/03/29 10:09:03;;;;;;;237.60;66.97;;;;;;;6.06;77.84;71222.09;4991181;28;20030;-87
2021/03/29 10:11:50;;;;;;;239.27;69.93;;;;;;;6.33;78.86;71255.69;4996372;28;20018;-89
2021/03/29 10:14:18;;;;;;;260.02;72.43;;;;;;;6.12;78.62;71231.94;4992544;28;20043;-87
2021/03/29 10:16:50;;;;;;;237.13;69.13;;;;;;;7.04;80.32;71333.72;5004367;28;20058;-86
2021/03/29 10:19:19;;;;;;;236.55;66.43;;;;;;;6.34;80.35;71256.88;4977700;28;20034;-87
2021/03/29 10:22:16;;;;;;;189.30;55.08;;;;;;;7.03;80.10;71332.53;4975696;28;20036;-86
2021/03/29 10:25:22;;;;;;;242.23;70.57;;;;;;;6.93;81.44;71324.59;4979319;28;20042;-88
2021/03/29 10:27:54;;;;;;;253.77;72.50;;;;;;;6.85;81.07;71312.94;4980504;28;20030;-89
2021/03/29 10:30:21;;;;;;;249.77;66.43;;;;;;;6.85;81.35;71315.66;4979994;28;20056;-89
2021/03/29 10:32:50;;;;;;;244.18;66.93;;;;;;;6.30;80.59;71249.41;4992818;28;20499;-89
2021/03/29 10:35:18;;;;;;;249.68;70.57;;;;;;;6.96;80.41;71327.56;4982554;28;20041;-89
2021/03/29 10:37:45;;;;;;;236.35;64.72;;;;;;;6.41;80.23;71265.19;4981165;28;20511;-88
2021/03/29 10:40:13;;;;;;;248.52;67.93;;;;;;;6.49;78.83;71274.13;4975273;28;20034;-88
2021/03/29 10:42:41;;;;;;;275.38;68.55;;;;;;;5.48;79.64;71155.63;4976467;28;20034;-89
2021/03/29 10:45:13;;;;;;;249.60;68.60;;;;;;;5.32;79.23;71140.56;4984346;28;20074;-91
2021/03/29 10:47:42;;;;;;;276.13;66.68;;;;;;;6.73;79.73;71298.09;4985759;28;20108;-88
2021/03/29 10:50:11;;;;;;;238.90;63.22;;;;;;;5.38;79.94;71146.47;4984437;28;20073;-90
2021/03/29 10:52:39;;;;;;;276.42;70.28;;;;;;;5.92;79.47;71208.78;4974232;28;20496;-89
2021/03/29 10:55:07;;;;;;;241.55;69.13;;;;;;;6.80;78.35;71306.41;4974908;28;20147;-90
2021/03/29 10:57:35;;;;;;;281.05;62.92;;;;;;;5.98;78.40;71215.31;4979798;28;20034;-89
2021/03/29 11:00:03;;;;;;;226.80;60.92;;;;;;;6.98;77.90;71327.81;4984883;28;20030;-90
2021/03/29 11:02:30;;;;;;;246.98;62.60;;;;;;;7.03;77.01;71335.88;4988384;28;20022;-90
2021/03/29 11:04:57;;;;;;;231.50;61.50;;;;;;;5.48;75.44;71152.91;4992429;28;20058;-89
2021/03/29 11:07:24;;;;;;;272.13;65.22;;;;;;;7.11;74.94;71339.31;4985919;28;20026;-90
2021/03/29 11:09:51;;;;;;;262.30;60.08;;;;;;;6.70;74.82;71297.84;4982462;28;20069;-89
2021/03/29 11:12:27;;;;;;;234.95;58.63;;;;;;;7.23;74.61;71359.03;4988012;28;20022;-89
2021/03/29 11:15:08;;;;;;;263.45;63.28;;;;;;;5.84;74.05;71193.84;4991566;28;20034;-92
2021/03/29 11:17:37;;;;;;;266.38;61.28;;;;;;;7.15;74.57;71346.22;4981326;28;20109;-91
2021/03/29 11:20:07;;;;;;;236.93;57.67;;;;;;;6.91;74.59;71322.22;4979054;28;20476;-90
2021/03/29 11:22:34;;;;;;;;;;;;;;;7.18;74.82;71353.09;4968974;28;20058;-92
2021/03/29 11:25:01;;;;;;;242.20;61.08;;;;;;;5.62;75.25;71174.38;4992211;28;20398;-90
2021/03/29 11:27:28;;;;;;;242.48;56.33;;;;;;;5.72;74.88;71185.66;4986501;28;20027;-92
2021/03/29 11:29:55;;;;;;;263.52;59.97;;;;;;;7.22;75.21;71355.13;4992414;28;20058;-89
2021/03/29 11:32:22;;;;;;;266.10;61.70;;;;;;;6.49;76.23;71273.50;4997527;28;20072;-89
2021/03/29 11:34:49;;;;;;;249.40;56.35;;;;;;;6.56;77.04;71281.81;4993446;28;20034;-89
2021/03/29 11:37:16;;;;;;;273.98;63.75;;;;;;;6.17;77.30;71237.28;4993993;28;20103;-90
2021/03/29 11:39:43;;;;;;;272.70;61.92;;;;;;;7.02;77.76;71331.34;4989980;28;20030;-89
2021/03/29 11:42:10;;;;;;;268.10;59.03;;;;;;;6.30;78.16;71249.41;4984722;28;20062;-87